createdAt,value
2017-10-16T00:00:04.968Z,14.6
2017-10-16T00:00:45.527Z,14.6
2017-10-16T00:01:26.086Z,14.62
2017-10-16T00:02:06.632Z,14.61
2017-10-16T00:02:47.167Z,14.68
2017-10-16T00:03:27.699Z,14.65
2017-10-16T00:04:08.252Z,14.65
2017-10-16T00:04:48.776Z,14.58
2017-10-16T00:05:29.305Z,14.61
2017-10-16T00:06:09.831Z,14.61
2017-10-16T00:06:50.352Z,14.61
2017-10-16T00:07:30.915Z,14.58
2017-10-16T00:08:11.370Z,14.68
2017-10-16T00:08:51.876Z,14.7
2017-10-16T00:09:32.409Z,14.73
2017-10-16T00:10:12.936Z,14.62
2017-10-16T00:10:53.454Z,14.61
2017-10-16T00:11:34.020Z,14.64
2017-10-16T00:12:14.491Z,14.55
2017-10-16T00:12:55.029Z,14.69
2017-10-16T00:13:35.461Z,14.69
2017-10-16T00:14:16.009Z,14.69
2017-10-16T00:14:56.564Z,14.72
2017-10-16T00:15:37.110Z,14.64
2017-10-16T00:16:17.608Z,14.68
2017-10-16T00:16:58.150Z,14.6
2017-10-16T00:17:38.689Z,14.65
2017-10-16T00:18:19.211Z,14.65
2017-10-16T00:18:59.727Z,14.61
2017-10-16T00:19:40.222Z,14.64
2017-10-16T00:20:20.700Z,14.6
2017-10-16T00:21:01.242Z,14.64
2017-10-16T00:21:41.695Z,14.69
2017-10-16T00:22:22.247Z,14.6
2017-10-16T00:23:02.766Z,14.64
2017-10-16T00:23:43.252Z,14.68
2017-10-16T00:24:23.757Z,14.57
2017-10-16T00:25:04.268Z,14.6
2017-10-16T00:25:44.789Z,14.64
2017-10-16T00:26:25.337Z,14.68
2017-10-16T00:27:05.912Z,14.72
2017-10-16T00:27:46.383Z,14.62
2017-10-16T00:28:26.894Z,14.64
2017-10-16T00:29:07.367Z,14.61
2017-10-16T00:29:47.858Z,14.62
2017-10-16T00:30:28.333Z,14.61
2017-10-16T00:31:08.854Z,14.61
2017-10-16T00:31:49.394Z,14.62
2017-10-16T00:32:29.944Z,14.6
2017-10-16T00:33:10.479Z,14.65
2017-10-16T00:33:50.953Z,14.6
2017-10-16T00:34:31.443Z,14.61
2017-10-16T00:35:11.967Z,14.61
2017-10-16T00:35:52.599Z,14.68
2017-10-16T00:36:33.104Z,14.65
2017-10-16T00:37:13.607Z,14.69
2017-10-16T00:37:54.099Z,14.7
2017-10-16T00:38:34.660Z,14.7
2017-10-16T00:39:15.133Z,14.7
2017-10-16T00:39:55.619Z,14.69
2017-10-16T00:40:36.115Z,14.72
2017-10-16T00:41:16.609Z,14.61
2017-10-16T00:41:57.108Z,14.55
2017-10-16T00:42:37.610Z,14.65
2017-10-16T00:43:18.152Z,14.64
2017-10-16T00:43:58.705Z,14.68
2017-10-16T00:44:39.177Z,14.62
2017-10-16T00:45:19.633Z,14.65
2017-10-16T00:46:00.143Z,14.64
2017-10-16T00:46:40.695Z,14.62
2017-10-16T00:47:21.253Z,14.65
2017-10-16T00:48:01.798Z,14.58
2017-10-16T00:48:42.363Z,14.57
2017-10-16T00:49:22.880Z,14.55
2017-10-16T00:50:03.463Z,14.62
2017-10-16T00:50:43.991Z,14.55
2017-10-16T00:51:24.528Z,14.54
2017-10-16T00:52:05.065Z,14.52
2017-10-16T00:52:45.595Z,14.54
2017-10-16T00:53:26.179Z,14.57
2017-10-16T00:54:06.745Z,14.55
2017-10-16T00:54:47.262Z,14.58
2017-10-16T00:55:27.795Z,14.55
2017-10-16T00:56:08.316Z,14.58
2017-10-16T00:56:48.858Z,14.57
2017-10-16T00:57:29.410Z,14.57
2017-10-16T00:58:09.976Z,14.5
2017-10-16T00:58:50.437Z,14.57
2017-10-16T00:59:31.003Z,14.52
2017-10-16T01:00:11.463Z,14.47
2017-10-16T01:00:51.970Z,14.52
2017-10-16T01:01:32.461Z,14.55
2017-10-16T01:02:12.959Z,14.6
2017-10-16T01:02:53.456Z,14.57
2017-10-16T01:03:33.998Z,14.55
2017-10-16T01:04:14.528Z,14.57
2017-10-16T01:04:55.019Z,14.57
2017-10-16T01:05:35.459Z,14.61
2017-10-16T01:06:15.993Z,14.57
2017-10-16T01:06:56.446Z,14.6
2017-10-16T01:07:36.940Z,14.64
2017-10-16T01:08:17.441Z,14.58
2017-10-16T01:08:57.927Z,14.64
2017-10-16T01:09:38.422Z,14.64
2017-10-16T01:10:18.968Z,14.64
2017-10-16T01:10:59.511Z,14.61
2017-10-16T01:11:40.123Z,14.68
2017-10-16T01:12:20.639Z,14.6
2017-10-16T01:13:01.236Z,14.55
2017-10-16T01:13:41.825Z,14.62
2017-10-16T01:14:22.367Z,14.58
2017-10-16T01:15:02.913Z,14.52
2017-10-16T01:15:43.510Z,14.54
2017-10-16T01:16:23.977Z,14.52
2017-10-16T01:17:04.504Z,14.52
2017-10-16T01:17:45.025Z,14.57
2017-10-16T01:18:25.568Z,14.54
2017-10-16T01:19:06.098Z,14.58
2017-10-16T01:19:46.628Z,14.55
2017-10-16T01:20:27.166Z,14.58
2017-10-16T01:21:07.689Z,14.62
2017-10-16T01:21:48.233Z,14.52
2017-10-16T01:22:28.786Z,14.52
2017-10-16T01:23:09.292Z,14.57
2017-10-16T01:23:49.793Z,14.55
2017-10-16T01:24:30.338Z,14.55
2017-10-16T01:25:10.878Z,14.55
2017-10-16T01:25:51.446Z,14.57
2017-10-16T01:26:31.990Z,14.47
2017-10-16T01:27:12.476Z,14.55
2017-10-16T01:27:52.983Z,14.5
2017-10-16T01:28:33.487Z,14.47
2017-10-16T01:29:13.963Z,14.55
2017-10-16T01:29:54.478Z,14.42
2017-10-16T01:30:35.015Z,14.46
2017-10-16T01:31:15.537Z,14.46
2017-10-16T01:31:56.034Z,14.43
2017-10-16T01:32:36.572Z,14.43
2017-10-16T01:33:17.121Z,14.4
2017-10-16T01:33:57.672Z,14.45
2017-10-16T01:34:38.156Z,14.47
2017-10-16T01:35:18.619Z,14.45
2017-10-16T01:35:59.135Z,14.33
2017-10-16T01:36:39.662Z,14.4
2017-10-16T01:37:20.189Z,14.37
2017-10-16T01:38:00.735Z,14.43
2017-10-16T01:38:41.257Z,14.36
2017-10-16T01:39:21.796Z,14.39
2017-10-16T01:40:02.332Z,14.42
2017-10-16T01:40:42.883Z,14.36
2017-10-16T01:41:23.385Z,14.33
2017-10-16T01:42:03.942Z,14.5
2017-10-16T01:42:44.458Z,14.47
2017-10-16T01:43:25.006Z,14.46
2017-10-16T01:44:05.551Z,14.45
2017-10-16T01:44:46.106Z,14.45
2017-10-16T01:45:26.684Z,14.46
2017-10-16T01:46:07.245Z,14.42
2017-10-16T01:46:47.789Z,14.42
2017-10-16T01:47:28.352Z,14.4
2017-10-16T01:48:08.865Z,14.55
2017-10-16T01:48:49.396Z,14.43
2017-10-16T01:49:29.994Z,14.54
2017-10-16T01:50:10.528Z,14.47
2017-10-16T01:50:51.100Z,14.54
2017-10-16T01:51:31.620Z,14.54
2017-10-16T01:52:12.139Z,14.47
2017-10-16T01:52:52.717Z,14.39
2017-10-16T01:53:33.212Z,14.47
2017-10-16T01:54:13.690Z,14.46
2017-10-16T01:54:54.174Z,14.43
2017-10-16T01:55:34.721Z,14.46
2017-10-16T01:56:15.223Z,14.47
2017-10-16T01:56:55.742Z,14.42
2017-10-16T01:57:36.289Z,14.46
2017-10-16T01:58:16.802Z,14.42
2017-10-16T01:58:57.274Z,14.43
2017-10-16T01:59:37.803Z,14.46
2017-10-16T02:00:18.326Z,14.36
2017-10-16T02:00:58.799Z,14.52
2017-10-16T02:01:39.349Z,14.54
2017-10-16T02:02:19.821Z,14.47
2017-10-16T02:03:00.397Z,14.55
2017-10-16T02:03:40.867Z,14.46
2017-10-16T02:04:21.338Z,14.55
2017-10-16T02:05:01.859Z,14.5
2017-10-16T02:05:42.400Z,14.55
2017-10-16T02:06:22.924Z,14.46
2017-10-16T02:07:03.432Z,14.45
2017-10-16T02:07:43.912Z,14.43
2017-10-16T02:08:24.431Z,14.46
2017-10-16T02:09:04.895Z,14.46
2017-10-16T02:09:45.397Z,14.43
2017-10-16T02:10:25.886Z,14.39
2017-10-16T02:11:06.407Z,14.37
2017-10-16T02:11:46.951Z,14.4
2017-10-16T02:12:27.486Z,14.36
2017-10-16T02:13:08.033Z,14.35
2017-10-16T02:13:48.591Z,14.39
2017-10-16T02:14:29.134Z,14.4
2017-10-16T02:15:09.657Z,14.46
2017-10-16T02:15:50.188Z,14.47
2017-10-16T02:16:30.738Z,14.39
2017-10-16T02:17:11.286Z,14.4
2017-10-16T02:17:51.807Z,14.35
2017-10-16T02:18:32.369Z,14.39
2017-10-16T02:19:12.842Z,14.35
2017-10-16T02:19:53.328Z,14.37
2017-10-16T02:20:33.824Z,14.4
2017-10-16T02:21:14.367Z,14.33
2017-10-16T02:21:54.899Z,14.36
2017-10-16T02:22:35.457Z,14.4
2017-10-16T02:23:15.967Z,14.33
2017-10-16T02:23:56.427Z,14.32
2017-10-16T02:24:36.915Z,14.42
2017-10-16T02:25:17.401Z,14.32
2017-10-16T02:25:57.901Z,14.28
2017-10-16T02:26:38.384Z,14.35
2017-10-16T02:27:18.874Z,14.33
2017-10-16T02:27:59.359Z,14.25
2017-10-16T02:28:39.869Z,14.22
2017-10-16T02:29:20.357Z,14.32
2017-10-16T02:30:00.896Z,14.22
2017-10-16T02:30:41.445Z,14.24
2017-10-16T02:31:21.956Z,14.22
2017-10-16T02:32:02.484Z,14.22
2017-10-16T02:32:43.007Z,14.24
2017-10-16T02:33:23.537Z,14.17
2017-10-16T02:34:04.047Z,14.25
2017-10-16T02:34:44.562Z,14.24
2017-10-16T02:35:25.019Z,14.22
2017-10-16T02:36:05.504Z,14.24
2017-10-16T02:36:46.030Z,14.27
2017-10-16T02:37:26.515Z,14.22
2017-10-16T02:38:07.024Z,14.25
2017-10-16T02:38:47.493Z,14.21
2017-10-16T02:39:27.989Z,14.22
2017-10-16T02:40:08.483Z,14.21
2017-10-16T02:40:48.989Z,14.22
2017-10-16T02:41:29.562Z,14.27
2017-10-16T02:42:10.107Z,14.21
2017-10-16T02:42:50.640Z,14.24
2017-10-16T02:43:31.171Z,14.21
2017-10-16T02:44:11.684Z,14.2
2017-10-16T02:44:52.195Z,14.17
2017-10-16T02:45:32.693Z,14.18
2017-10-16T02:46:13.208Z,14.21
2017-10-16T02:46:53.713Z,14.18
2017-10-16T02:47:34.311Z,14.18
2017-10-16T02:48:14.783Z,14.14
2017-10-16T02:48:55.328Z,14.14
2017-10-16T02:49:35.835Z,14.17
2017-10-16T02:50:16.373Z,14.15
2017-10-16T02:50:56.890Z,14.04
2017-10-16T02:51:37.437Z,14.06
2017-10-16T02:52:17.948Z,14.06
2017-10-16T02:52:58.440Z,14.03
2017-10-16T02:53:38.990Z,14.14
2017-10-16T02:54:19.497Z,14.03
2017-10-16T02:55:00.057Z,14.06
2017-10-16T02:55:40.580Z,14.03
2017-10-16T02:56:21.108Z,14.06
2017-10-16T02:57:01.627Z,14.06
2017-10-16T02:57:42.193Z,13.97
2017-10-16T02:58:22.711Z,14.07
2017-10-16T02:59:03.250Z,14.06
2017-10-16T02:59:43.797Z,14.04
2017-10-16T03:00:24.310Z,14
2017-10-16T03:01:04.835Z,14.04
2017-10-16T03:01:45.376Z,14.03
2017-10-16T03:02:25.958Z,14.06
2017-10-16T03:03:06.484Z,14.02
2017-10-16T03:03:47.021Z,14.04
2017-10-16T03:04:27.565Z,14
2017-10-16T03:05:08.117Z,14.06
2017-10-16T03:05:48.638Z,14.02
2017-10-16T03:06:29.105Z,14
2017-10-16T03:07:09.596Z,14.04
2017-10-16T03:07:50.120Z,14.03
2017-10-16T03:08:30.579Z,14.07
2017-10-16T03:09:11.117Z,13.99
2017-10-16T03:09:51.587Z,14.04
2017-10-16T03:10:32.114Z,13.99
2017-10-16T03:11:12.591Z,13.95
2017-10-16T03:11:53.128Z,13.91
2017-10-16T03:12:33.602Z,13.92
2017-10-16T03:13:14.119Z,13.96
2017-10-16T03:13:54.618Z,13.95
2017-10-16T03:14:35.132Z,13.96
2017-10-16T03:15:15.699Z,13.99
2017-10-16T03:15:56.220Z,13.95
2017-10-16T03:16:36.703Z,13.91
2017-10-16T03:17:17.205Z,13.81
2017-10-16T03:17:57.702Z,13.87
2017-10-16T03:18:38.218Z,13.99
2017-10-16T03:19:18.697Z,13.88
2017-10-16T03:19:59.241Z,13.89
2017-10-16T03:20:39.871Z,13.89
2017-10-16T03:21:20.355Z,13.92
2017-10-16T03:22:00.905Z,13.92
2017-10-16T03:22:41.449Z,13.81
2017-10-16T03:23:21.888Z,13.97
2017-10-16T03:24:02.383Z,13.87
2017-10-16T03:24:42.915Z,13.95
2017-10-16T03:25:23.419Z,13.88
2017-10-16T03:26:03.897Z,13.91
2017-10-16T03:26:44.383Z,13.88
2017-10-16T03:27:24.962Z,13.96
2017-10-16T03:28:05.460Z,13.88
2017-10-16T03:28:45.995Z,13.91
2017-10-16T03:29:26.519Z,13.88
2017-10-16T03:30:07.055Z,13.81
2017-10-16T03:30:47.589Z,13.81
2017-10-16T03:31:28.115Z,13.89
2017-10-16T03:32:08.653Z,13.78
2017-10-16T03:32:49.184Z,13.88
2017-10-16T03:33:29.646Z,13.87
2017-10-16T03:34:10.123Z,13.84
2017-10-16T03:34:50.617Z,13.88
2017-10-16T03:35:31.104Z,13.79
2017-10-16T03:36:11.642Z,13.95
2017-10-16T03:36:52.133Z,13.87
2017-10-16T03:37:32.629Z,13.84
2017-10-16T03:38:13.124Z,13.82
2017-10-16T03:38:53.628Z,13.75
2017-10-16T03:39:34.163Z,13.84
2017-10-16T03:40:14.651Z,13.81
2017-10-16T03:40:55.134Z,13.81
2017-10-16T03:41:35.660Z,13.78
2017-10-16T03:42:16.169Z,13.79
2017-10-16T03:42:56.635Z,13.85
2017-10-16T03:43:37.145Z,13.84
2017-10-16T03:44:17.617Z,13.81
2017-10-16T03:44:58.123Z,13.73
2017-10-16T03:45:38.616Z,13.79
2017-10-16T03:46:19.206Z,13.81
2017-10-16T03:46:59.729Z,13.82
2017-10-16T03:47:40.291Z,13.77
2017-10-16T03:48:20.819Z,13.73
2017-10-16T03:49:01.365Z,13.79
2017-10-16T03:49:41.902Z,13.69
2017-10-16T03:50:22.458Z,13.7
2017-10-16T03:51:02.983Z,13.67
2017-10-16T03:51:43.551Z,13.69
2017-10-16T03:52:24.044Z,13.71
2017-10-16T03:53:04.503Z,13.71
2017-10-16T03:53:45.011Z,13.67
2017-10-16T03:54:25.491Z,13.71
2017-10-16T03:55:06.011Z,13.73
2017-10-16T03:55:46.499Z,13.73
2017-10-16T03:56:27.016Z,13.71
2017-10-16T03:57:07.522Z,13.75
2017-10-16T03:57:48.034Z,13.7
2017-10-16T03:58:28.529Z,13.69
2017-10-16T03:59:09.058Z,13.69
2017-10-16T03:59:49.564Z,13.7
2017-10-16T04:00:30.035Z,13.69
2017-10-16T04:01:10.528Z,13.66
2017-10-16T04:01:51.034Z,13.69
2017-10-16T04:02:31.511Z,13.67
2017-10-16T04:03:12.054Z,13.7
2017-10-16T04:03:52.635Z,13.67
2017-10-16T04:04:33.167Z,13.55
2017-10-16T04:05:13.679Z,13.64
2017-10-16T04:05:54.194Z,13.62
2017-10-16T04:06:34.694Z,13.54
2017-10-16T04:07:15.215Z,13.59
2017-10-16T04:07:55.787Z,13.57
2017-10-16T04:08:36.271Z,13.55
2017-10-16T04:09:16.816Z,13.57
2017-10-16T04:09:57.362Z,13.63
2017-10-16T04:10:37.895Z,13.62
2017-10-16T04:11:18.419Z,13.54
2017-10-16T04:11:58.960Z,13.63
2017-10-16T04:12:39.491Z,13.49
2017-10-16T04:13:20.027Z,13.59
2017-10-16T04:14:00.554Z,13.57
2017-10-16T04:14:41.085Z,13.54
2017-10-16T04:15:21.622Z,13.57
2017-10-16T04:16:02.169Z,13.59
2017-10-16T04:16:42.716Z,13.55
2017-10-16T04:17:23.269Z,13.6
2017-10-16T04:18:03.823Z,13.55
2017-10-16T04:18:44.356Z,13.57
2017-10-16T04:19:24.896Z,13.54
2017-10-16T04:20:05.437Z,13.54
2017-10-16T04:20:45.992Z,13.55
2017-10-16T04:21:26.529Z,13.57
2017-10-16T04:22:07.068Z,13.59
2017-10-16T04:22:47.586Z,13.49
2017-10-16T04:23:28.136Z,13.51
2017-10-16T04:24:08.675Z,13.54
2017-10-16T04:24:49.218Z,13.54
2017-10-16T04:25:29.754Z,13.57
2017-10-16T04:26:10.238Z,13.49
2017-10-16T04:26:50.772Z,13.55
2017-10-16T04:27:31.267Z,13.48
2017-10-16T04:28:11.790Z,13.49
2017-10-16T04:28:52.335Z,13.54
2017-10-16T04:29:32.907Z,13.52
2017-10-16T04:30:13.359Z,13.55
2017-10-16T04:30:53.876Z,13.49
2017-10-16T04:31:34.378Z,13.59
2017-10-16T04:32:14.898Z,13.52
2017-10-16T04:32:55.402Z,13.55
2017-10-16T04:33:37.209Z,13.57
2017-10-16T04:34:20.674Z,13.52
2017-10-16T04:35:01.170Z,13.52
2017-10-16T04:35:41.678Z,13.52
2017-10-16T04:36:22.180Z,13.6
2017-10-16T04:37:02.699Z,13.54
2017-10-16T04:37:43.219Z,13.52
2017-10-16T04:38:28.695Z,13.55
2017-10-16T04:39:10.021Z,13.55
2017-10-16T04:39:50.592Z,13.54
2017-10-16T04:40:31.086Z,13.51
2017-10-16T04:41:11.626Z,13.49
2017-10-16T04:41:52.170Z,13.59
2017-10-16T04:42:32.691Z,13.57
2017-10-16T04:43:13.193Z,13.59
2017-10-16T04:43:53.753Z,13.45
2017-10-16T04:44:34.291Z,13.52
2017-10-16T04:45:14.786Z,13.48
2017-10-16T04:45:55.329Z,13.52
2017-10-16T04:46:35.875Z,13.48
2017-10-16T04:47:16.364Z,13.44
2017-10-16T04:47:56.851Z,13.51
2017-10-16T04:48:37.384Z,13.54
2017-10-16T04:49:19.871Z,13.44
2017-10-16T04:50:00.395Z,13.46
2017-10-16T04:50:40.944Z,13.48
2017-10-16T04:51:21.548Z,13.38
2017-10-16T04:52:02.084Z,13.39
2017-10-16T04:52:43.144Z,13.38
2017-10-16T04:53:23.689Z,13.45
2017-10-16T04:54:04.218Z,13.41
2017-10-16T04:54:44.759Z,13.41
2017-10-16T04:55:25.302Z,13.48
2017-10-16T04:56:05.835Z,13.42
2017-10-16T04:56:46.375Z,13.36
2017-10-16T04:57:26.909Z,13.38
2017-10-16T04:58:07.446Z,13.33
2017-10-16T04:58:47.971Z,13.32
2017-10-16T04:59:28.481Z,13.3
2017-10-16T05:00:08.982Z,13.36
2017-10-16T05:00:49.473Z,13.42
2017-10-16T05:01:30.697Z,13.32
2017-10-16T05:02:11.260Z,13.41
2017-10-16T05:02:52.885Z,13.3
2017-10-16T05:03:33.845Z,13.3
2017-10-16T05:04:15.292Z,13.32
2017-10-16T05:04:55.826Z,13.38
2017-10-16T05:05:36.341Z,13.3
2017-10-16T05:06:16.862Z,13.3
2017-10-16T05:06:57.365Z,13.36
2017-10-16T05:07:37.970Z,13.41
2017-10-16T05:08:18.442Z,13.36
2017-10-16T05:08:59.178Z,13.44
2017-10-16T05:09:39.627Z,13.44
2017-10-16T05:10:20.113Z,13.44
2017-10-16T05:11:00.753Z,13.42
2017-10-16T05:11:41.278Z,13.42
2017-10-16T05:12:21.782Z,13.45
2017-10-16T05:13:02.281Z,13.33
2017-10-16T05:13:42.781Z,13.42
2017-10-16T05:14:23.293Z,13.39
2017-10-16T05:15:03.836Z,13.49
2017-10-16T05:15:44.359Z,13.45
2017-10-16T05:16:24.839Z,13.36
2017-10-16T05:17:05.335Z,13.46
2017-10-16T05:17:45.846Z,13.33
2017-10-16T05:18:26.378Z,13.46
2017-10-16T05:19:07.031Z,13.39
2017-10-16T05:19:47.570Z,13.39
2017-10-16T05:20:28.060Z,13.49
2017-10-16T05:21:08.575Z,13.45
2017-10-16T05:21:49.075Z,13.41
2017-10-16T05:22:29.583Z,13.45
2017-10-16T05:23:10.896Z,13.51
2017-10-16T05:23:51.389Z,13.42
2017-10-16T05:24:31.941Z,13.42
2017-10-16T05:25:13.340Z,13.44
2017-10-16T05:25:53.805Z,13.45
2017-10-16T05:26:34.330Z,13.44
2017-10-16T05:27:14.816Z,13.42
2017-10-16T05:27:55.352Z,13.45
2017-10-16T05:28:36.408Z,13.41
2017-10-16T05:29:16.900Z,13.39
2017-10-16T05:29:57.380Z,13.42
2017-10-16T05:30:37.910Z,13.41
2017-10-16T05:31:18.426Z,13.44
2017-10-16T05:31:58.995Z,13.41
2017-10-16T05:32:39.596Z,13.44
2017-10-16T05:33:20.106Z,13.45
2017-10-16T05:34:00.635Z,13.39
2017-10-16T05:34:41.173Z,13.41
2017-10-16T05:35:21.614Z,13.44
2017-10-16T05:36:02.104Z,13.49
2017-10-16T05:36:42.607Z,13.49
2017-10-16T05:37:23.124Z,13.45
2017-10-16T05:38:03.632Z,13.48
2017-10-16T05:38:44.188Z,13.42
2017-10-16T05:39:24.785Z,13.45
2017-10-16T05:40:05.265Z,13.42
2017-10-16T05:40:45.766Z,13.39
2017-10-16T05:41:26.390Z,13.41
2017-10-16T05:42:06.885Z,13.49
2017-10-16T05:42:47.366Z,13.48
2017-10-16T05:43:27.876Z,13.38
2017-10-16T05:44:08.358Z,13.42
2017-10-16T05:44:48.851Z,13.45
2017-10-16T05:45:29.352Z,13.42
2017-10-16T05:46:09.888Z,13.41
2017-10-16T05:46:50.396Z,13.44
2017-10-16T05:47:30.882Z,13.48
2017-10-16T05:48:11.387Z,13.55
2017-10-16T05:48:51.879Z,13.41
2017-10-16T05:49:32.390Z,13.44
2017-10-16T05:50:12.894Z,13.39
2017-10-16T05:50:53.456Z,13.44
2017-10-16T05:51:33.941Z,13.54
2017-10-16T05:52:14.430Z,13.52
2017-10-16T05:52:56.801Z,13.6
2017-10-16T05:53:37.330Z,13.49
2017-10-16T05:54:17.831Z,13.51
2017-10-16T05:54:58.379Z,13.51
2017-10-16T05:55:38.857Z,13.48
2017-10-16T05:56:19.373Z,13.52
2017-10-16T05:56:59.882Z,13.52
2017-10-16T05:57:40.389Z,13.52
2017-10-16T05:58:20.873Z,13.48
2017-10-16T05:59:01.399Z,13.55
2017-10-16T05:59:41.909Z,13.55
2017-10-16T06:00:22.476Z,13.55
2017-10-16T06:01:02.980Z,13.57
2017-10-16T06:01:43.527Z,13.49
2017-10-16T06:02:24.064Z,13.51
2017-10-16T06:03:04.548Z,13.55
2017-10-16T06:03:45.039Z,13.54
2017-10-16T06:04:25.593Z,13.49
2017-10-16T06:05:06.063Z,13.49
2017-10-16T06:05:46.637Z,13.57
2017-10-16T06:06:27.137Z,13.54
2017-10-16T06:07:07.635Z,13.57
2017-10-16T06:07:48.149Z,13.54
2017-10-16T06:08:28.632Z,13.6
2017-10-16T06:09:09.137Z,13.59
2017-10-16T06:09:49.701Z,13.55
2017-10-16T06:10:30.208Z,13.62
2017-10-16T06:11:10.683Z,13.67
2017-10-16T06:11:51.250Z,13.69
2017-10-16T06:12:31.793Z,13.67
2017-10-16T06:13:12.255Z,13.75
2017-10-16T06:13:52.748Z,13.67
2017-10-16T06:14:33.238Z,13.73
2017-10-16T06:15:13.737Z,13.67
2017-10-16T06:15:54.232Z,13.85
2017-10-16T06:16:34.708Z,13.81
2017-10-16T06:17:15.264Z,13.82
2017-10-16T06:17:55.776Z,13.79
2017-10-16T06:18:36.257Z,13.84
2017-10-16T06:19:16.780Z,13.82
2017-10-16T06:19:57.307Z,13.99
2017-10-16T06:20:37.844Z,13.91
2017-10-16T06:21:18.375Z,13.96
2017-10-16T06:21:58.900Z,13.97
2017-10-16T06:22:39.456Z,13.91
2017-10-16T06:23:19.977Z,13.96
2017-10-16T06:24:00.522Z,14
2017-10-16T06:24:41.055Z,14.04
2017-10-16T06:25:21.577Z,14.04
2017-10-16T06:26:02.104Z,14
2017-10-16T06:26:42.627Z,14.04
2017-10-16T06:27:23.173Z,14.09
2017-10-16T06:28:03.723Z,14.09
2017-10-16T06:28:44.283Z,14.07
2017-10-16T06:29:24.822Z,14.09
2017-10-16T06:30:05.354Z,14.06
2017-10-16T06:30:45.881Z,14.12
2017-10-16T06:31:26.420Z,14.15
2017-10-16T06:32:06.960Z,14.17
2017-10-16T06:32:47.483Z,14.2
2017-10-16T06:33:28.022Z,14.14
2017-10-16T06:34:08.583Z,14.24
2017-10-16T06:34:49.097Z,14.2
2017-10-16T06:35:29.630Z,14.18
2017-10-16T06:36:10.127Z,14.2
2017-10-16T06:36:50.666Z,14.24
2017-10-16T06:37:31.232Z,14.2
2017-10-16T06:38:11.752Z,14.2
2017-10-16T06:38:52.284Z,14.18
2017-10-16T06:39:32.838Z,14.24
2017-10-16T06:40:13.433Z,14.17
2017-10-16T06:40:53.933Z,14.21
2017-10-16T06:41:34.452Z,14.21
2017-10-16T06:42:14.931Z,14.21
2017-10-16T06:42:55.409Z,14.22
2017-10-16T06:43:35.958Z,14.21
2017-10-16T06:44:16.473Z,14.2
2017-10-16T06:44:56.960Z,14.22
2017-10-16T06:45:37.438Z,14.28
2017-10-16T06:46:17.985Z,14.22
2017-10-16T06:46:58.527Z,14.21
2017-10-16T06:47:38.995Z,14.18
2017-10-16T06:48:19.499Z,14.17
2017-10-16T06:48:59.999Z,14.2
2017-10-16T06:49:40.517Z,14.22
2017-10-16T06:50:21.091Z,14.22
2017-10-16T06:51:01.661Z,14.12
2017-10-16T06:51:42.150Z,14.12
2017-10-16T06:52:22.641Z,14.12
2017-10-16T06:53:03.184Z,14.17
2017-10-16T06:53:43.701Z,14.18
2017-10-16T06:54:24.243Z,14.12
2017-10-16T06:55:04.779Z,14.14
2017-10-16T06:55:45.294Z,14.17
2017-10-16T06:56:25.840Z,14.12
2017-10-16T06:57:06.389Z,14.17
2017-10-16T06:57:46.913Z,14.1
2017-10-16T06:58:27.445Z,14.12
2017-10-16T06:59:07.961Z,14.12
2017-10-16T06:59:48.515Z,14.17
2017-10-16T07:00:29.066Z,14.14
2017-10-16T07:01:09.589Z,14.12
2017-10-16T07:01:50.106Z,14.1
2017-10-16T07:02:30.611Z,14.12
2017-10-16T07:03:11.146Z,14.12
2017-10-16T07:03:51.693Z,14.12
2017-10-16T07:04:32.259Z,14.17
2017-10-16T07:05:12.727Z,14.17
2017-10-16T07:05:53.213Z,14.14
2017-10-16T07:06:33.849Z,14.15
2017-10-16T07:07:14.357Z,14.25
2017-10-16T07:07:54.839Z,14.12
2017-10-16T07:08:35.380Z,14.07
2017-10-16T07:09:15.873Z,14.2
2017-10-16T07:09:56.357Z,14.22
2017-10-16T07:10:36.877Z,14.21
2017-10-16T07:11:17.398Z,14.18
2017-10-16T07:11:57.903Z,14.32
2017-10-16T07:12:38.389Z,14.29
2017-10-16T07:13:18.878Z,14.24
2017-10-16T07:13:59.374Z,14.2
2017-10-16T07:14:39.865Z,14.25
2017-10-16T07:15:20.353Z,14.21
2017-10-16T07:16:00.838Z,14.32
2017-10-16T07:16:41.404Z,14.32
2017-10-16T07:17:21.931Z,14.36
2017-10-16T07:18:02.356Z,14.39
2017-10-16T07:18:42.903Z,14.4
2017-10-16T07:19:23.404Z,14.45
2017-10-16T07:20:03.889Z,14.33
2017-10-16T07:20:44.443Z,14.45
2017-10-16T07:21:24.894Z,14.45
2017-10-16T07:22:05.383Z,14.5
2017-10-16T07:22:45.928Z,14.51
2017-10-16T07:23:26.411Z,14.45
2017-10-16T07:24:06.909Z,14.47
2017-10-16T07:24:47.402Z,14.57
2017-10-16T07:25:27.896Z,14.6
2017-10-16T07:26:08.371Z,14.58
2017-10-16T07:26:48.902Z,14.54
2017-10-16T07:27:29.456Z,14.52
2017-10-16T07:28:09.923Z,14.62
2017-10-16T07:28:50.453Z,14.65
2017-10-16T07:29:30.920Z,14.7
2017-10-16T07:30:11.423Z,14.65
2017-10-16T07:30:52.109Z,14.65
2017-10-16T07:31:32.559Z,14.65
2017-10-16T07:32:13.059Z,14.61
2017-10-16T07:32:53.551Z,14.75
2017-10-16T07:33:34.056Z,14.7
2017-10-16T07:34:14.542Z,14.73
2017-10-16T07:34:55.041Z,14.7
2017-10-16T07:35:35.570Z,14.8
2017-10-16T07:36:16.054Z,14.77
2017-10-16T07:36:56.564Z,14.77
2017-10-16T07:37:37.031Z,14.8
2017-10-16T07:38:17.660Z,14.84
2017-10-16T07:38:58.226Z,14.81
2017-10-16T07:39:38.697Z,14.83
2017-10-16T07:40:19.226Z,14.86
2017-10-16T07:40:59.729Z,14.84
2017-10-16T07:41:40.265Z,14.86
2017-10-16T07:42:20.802Z,14.88
2017-10-16T07:43:01.312Z,14.96
2017-10-16T07:43:41.866Z,14.95
2017-10-16T07:44:22.393Z,14.98
2017-10-16T07:45:02.905Z,15.02
2017-10-16T07:45:43.418Z,15.03
2017-10-16T07:46:23.888Z,15.03
2017-10-16T07:47:04.382Z,15.07
2017-10-16T07:47:44.881Z,15.09
2017-10-16T07:48:25.518Z,15.16
2017-10-16T07:49:05.971Z,15.14
2017-10-16T07:49:46.467Z,15.2
2017-10-16T07:50:26.958Z,15.17
2017-10-16T07:51:07.497Z,15.34
2017-10-16T07:51:47.955Z,15.36
2017-10-16T07:52:28.448Z,15.44
2017-10-16T07:53:08.948Z,15.49
2017-10-16T07:53:49.489Z,15.5
2017-10-16T07:54:30.045Z,15.54
2017-10-16T07:55:10.531Z,15.54
2017-10-16T07:55:51.031Z,15.72
2017-10-16T07:56:31.518Z,15.71
2017-10-16T07:57:12.207Z,15.82
2017-10-16T07:57:52.705Z,15.75
2017-10-16T07:58:33.163Z,15.83
2017-10-16T07:59:13.646Z,15.89
2017-10-16T07:59:54.147Z,15.86
2017-10-16T08:00:34.695Z,16.02
2017-10-16T08:01:15.241Z,15.97
2017-10-16T08:01:55.736Z,16.01
2017-10-16T08:02:36.242Z,16.04
2017-10-16T08:03:16.705Z,16.02
2017-10-16T08:03:57.259Z,16
2017-10-16T08:04:37.733Z,16.05
2017-10-16T08:05:18.279Z,16.05
2017-10-16T08:05:58.928Z,16.01
2017-10-16T08:06:39.413Z,16.11
2017-10-16T08:07:19.906Z,16.08
2017-10-16T08:08:00.400Z,16.04
2017-10-16T08:08:40.926Z,16.07
2017-10-16T08:09:21.449Z,16
2017-10-16T08:10:01.982Z,16.05
2017-10-16T08:10:42.521Z,16.07
2017-10-16T08:11:23.050Z,16.07
2017-10-16T08:12:03.578Z,16.08
2017-10-16T08:12:44.106Z,16.08
2017-10-16T08:13:24.642Z,16.02
2017-10-16T08:14:05.212Z,16.05
2017-10-16T08:14:45.757Z,16.11
2017-10-16T08:15:26.300Z,16.04
2017-10-16T08:16:06.835Z,16.09
2017-10-16T08:16:47.363Z,16.12
2017-10-16T08:17:27.957Z,16.04
2017-10-16T08:18:08.480Z,16.11
2017-10-16T08:18:49.002Z,16.08
2017-10-16T08:19:29.535Z,16.07
2017-10-16T08:20:10.091Z,16.08
2017-10-16T08:20:50.583Z,16.01
2017-10-16T08:21:31.211Z,16.01
2017-10-16T08:22:11.740Z,16.09
2017-10-16T08:22:52.249Z,16.01
2017-10-16T08:23:32.718Z,16.04
2017-10-16T08:24:13.240Z,16.05
2017-10-16T08:24:53.718Z,16.08
2017-10-16T08:25:34.200Z,16.05
2017-10-16T08:26:14.732Z,16.11
2017-10-16T08:26:55.193Z,16.11
2017-10-16T08:27:35.734Z,16.21
2017-10-16T08:28:16.213Z,16.2
2017-10-16T08:28:56.809Z,16.15
2017-10-16T08:29:37.257Z,16.23
2017-10-16T08:30:17.808Z,16.33
2017-10-16T08:30:58.334Z,16.3
2017-10-16T08:31:38.798Z,16.35
2017-10-16T08:32:19.331Z,16.48
2017-10-16T08:32:59.819Z,16.45
2017-10-16T08:33:40.284Z,16.45
2017-10-16T08:34:20.853Z,16.6
2017-10-16T08:35:01.327Z,16.64
2017-10-16T08:35:41.801Z,16.61
2017-10-16T08:36:22.301Z,16.67
2017-10-16T08:37:02.830Z,16.75
2017-10-16T08:37:43.314Z,16.78
2017-10-16T08:38:23.806Z,16.88
2017-10-16T08:39:04.286Z,16.93
2017-10-16T08:39:44.798Z,16.89
2017-10-16T08:40:25.350Z,16.96
2017-10-16T08:41:05.858Z,16.89
2017-10-16T08:41:46.388Z,17.01
2017-10-16T08:42:26.915Z,16.97
2017-10-16T08:43:07.457Z,17.04
2017-10-16T08:43:48.025Z,17.06